Time;durP1;ratioP1;P1;durP2;ratioP2;P2;SDS_P1;SDS_P2;PMS_P1;PMS_P2;Temp;Humidity;BMP_temperature;BMP_pressure;BME280_temperature;BME280_humidity;BME280_pressure;Samples;Min_cycle;Max_cycle;Signal;HPM_P1;HPM_P2
2021/03/27 00:00:30;;;;;;;4.93;4.53;;;;;;;22.70;31.38;96604.25;5084225;28;20134;-69
2021/03/27 00:03:02;;;;;;;5.25;4.80;;;;;;;22.69;31.15;96599.91;5092917;28;20051;-61
2021/03/27 00:05:32;;;;;;;5.05;4.65;;;;;;;22.73;31.24;96611.84;5101503;28;20039;-69
2021/03/27 00:08:12;;;;;;;5.03;4.55;;;;;;;22.75;31.02;96607.72;5084904;28;20073;-68
2021/03/27 00:10:45;;;;;;;4.53;4.13;;;;;;;22.79;31.12;96613.44;5100925;28;20139;-67
2021/03/27 00:13:52;;;;;;;4.60;4.20;;;;;;;22.79;31.11;96606.03;5102285;28;20131;-69
2021/03/27 00:16:33;;;;;;;4.50;4.15;;;;;;;22.80;31.06;96609.59;5088182;28;20051;-69
2021/03/27 00:19:03;;;;;;;4.53;4.13;;;;;;;22.83;30.99;96611.72;5087003;28;20493;-67
2021/03/27 00:21:39;;;;;;;4.13;3.83;;;;;;;22.86;31.12;96624.78;5084861;28;20058;-69
2021/03/27 00:24:12;;;;;;;4.30;3.90;;;;;;;22.86;31.16;96622.06;5101177;28;20044;-68
2021/03/27 00:26:47;;;;;;;4.05;3.67;;;;;;;22.89;31.02;96626.94;5091464;28;20051;-69
2021/03/27 00:29:21;;;;;;;4.13;3.83;;;;;;;22.91;30.67;96630.22;5072410;28;20584;-68
2021/03/27 00:31:50;;;;;;;4.03;3.63;;;;;;;22.94;31.00;96624.13;5071488;28;20130;-69
2021/03/27 00:36:08;;;;;;;3.60;3.40;;;;;;;22.97;30.99;96618.09;5103690;27;20395;-65
2021/03/27 00:38:37;;;;;;;4.00;3.70;;;;;;;23.00;30.84;96622.97;5102548;28;20069;-67
2021/03/27 00:41:02;;;;;;;3.47;3.28;;;;;;;23.00;30.67;96612.03;5085767;28;20043;-69
2021/03/27 00:43:34;;;;;;;3.70;3.40;;;;;;;23.02;30.85;96609.06;5085505;28;20129;-69
2021/03/27 00:46:01;;;;;;;3.50;3.30;;;;;;;23.01;30.63;96619.19;5086030;28;20085;-69
2021/03/27 00:48:32;;;;;;;3.22;3.03;;;;;;;23.06;30.74;96623.75;5084856;28;20138;-65
2021/03/27 00:51:03;;;;;;;3.22;3.03;;;;;;;23.07;30.78;96630.88;5102172;28;20160;-65
2021/03/27 00:53:38;;;;;;;3.40;3.10;;;;;;;23.06;30.98;96629.22;5093181;28;20051;-67
2021/03/27 00:56:26;;;;;;;3.30;3.00;;;;;;;23.08;30.83;96629.75;5105855;28;20311;-69
2021/03/27 00:58:57;;;;;;;3.10;2.90;;;;;;;23.10;30.73;96626.72;5105811;28;20071;-68
2021/03/27 01:01:24;;;;;;;2.67;2.47;;;;;;;23.10;30.94;96633.00;5105754;28;20055;-65
2021/03/27 01:04:00;;;;;;;3.10;2.90;;;;;;;23.12;30.82;96629.97;5105423;28;20047;-67
2021/03/27 01:06:53;;;;;;;3.20;3.00;;;;;;;23.13;30.74;96631.59;5105184;28;20154;-65
2021/03/27 01:09:22;;;;;;;3.50;3.20;;;;;;;23.13;30.79;96643.31;5118786;28;20134;-65
2021/03/27 01:12:09;;;;;;;3.28;2.97;;;;;;;23.14;30.76;96650.44;5122171;28;20058;-66
2021/03/27 01:14:40;;;;;;;3.10;2.90;;;;;;;23.16;30.80;96640.00;5105113;28;20085;-68
2021/03/27 01:17:06;;;;;;;2.80;2.60;;;;;;;23.18;30.52;96647.94;5122397;28;20076;-65
2021/03/27 01:19:37;;;;;;;3.13;2.92;;;;;;;23.19;30.72;96646.81;5105338;28;20046;-63
2021/03/27 01:22:05;;;;;;;2.88;2.67;;;;;;;23.23;30.72;96647.84;5121618;28;20054;-68
2021/03/27 01:24:31;;;;;;;3.15;2.88;;;;;;;23.22;30.67;96654.44;5104814;28;20135;-60
2021/03/27 01:27:02;;;;;;;2.90;2.70;;;;;;;23.22;30.67;96663.44;5085120;28;20138;-65
2021/03/27 01:29:35;;;;;;;3.00;2.80;;;;;;;23.23;30.51;96662.31;5100925;28;20056;-60
2021/03/27 01:32:09;;;;;;;2.70;2.60;;;;;;;23.26;30.45;96669.13;5102719;28;20051;-61
2021/03/27 01:34:43;;;;;;;2.80;2.60;;;;;;;23.25;30.56;96671.03;5102319;28;20419;-63
2021/03/27 01:37:17;;;;;;;2.65;2.45;;;;;;;23.27;30.53;96671.56;5101079;28;20142;-60
2021/03/27 01:40:12;;;;;;;2.95;2.70;;;;;;;23.29;30.49;96673.19;5102236;28;20051;-60
2021/03/27 01:42:44;;;;;;;2.85;2.65;;;;;;;23.27;30.51;96671.56;5102241;28;20527;-61
2021/03/27 01:45:52;;;;;;;2.50;2.40;;;;;;;23.30;30.53;96678.38;5100601;28;20059;-60
2021/03/27 01:48:21;;;;;;;2.55;2.45;;;;;;;23.30;30.26;96683.00;5086765;28;20067;-60
2021/03/27 01:50:49;;;;;;;2.08;1.98;;;;;;;23.32;30.40;96680.78;5088745;28;20043;-59
2021/03/27 01:53:38;;;;;;;2.90;2.70;;;;;;;23.30;30.28;96678.38;5075814;28;20105;-69
2021/03/27 01:56:15;;;;;;;2.50;2.30;;;;;;;23.33;30.28;96680.50;5113560;27;20384;-63
2021/03/27 01:59:12;;;;;;;2.17;2.08;;;;;;;23.33;30.34;96679.69;5086158;28;20615;-67
2021/03/27 02:01:46;;;;;;;2.30;2.10;;;;;;;23.34;30.31;96684.03;5071345;28;20134;-69
2021/03/27 02:04:24;;;;;;;2.42;2.33;;;;;;;23.33;30.31;96683.22;5087603;28;20511;-65
2021/03/27 02:07:00;;;;;;;2.45;2.30;;;;;;;23.35;30.33;96686.50;5070249;28;20518;-68
2021/03/27 02:10:03;;;;;;;2.42;2.30;;;;;;;23.38;30.13;96685.88;5070526;28;20075;-68
2021/03/27 02:12:45;;;;;;;2.83;2.63;;;;;;;23.37;30.35;96697.13;5049248;28;20044;-67
2021/03/27 02:15:15;;;;;;;2.67;2.55;;;;;;;23.38;30.22;96698.75;5092085;28;20052;-68
2021/03/27 02:17:51;;;;;;;2.47;2.30;;;;;;;23.39;30.22;96709.41;5067991;28;20135;-69
2021/03/27 02:20:38;;;;;;;2.22;2.13;;;;;;;23.37;30.41;96708.88;5066619;28;20057;-66
2021/03/27 02:23:18;;;;;;;2.30;2.20;;;;;;;23.38;30.22;96709.69;5067308;28;20059;-68
2021/03/27 02:25:53;;;;;;;2.35;2.15;;;;;;;23.39;30.19;96717.59;5051847;28;20109;-68
2021/03/27 02:28:54;;;;;;;2.42;2.25;;;;;;;23.38;30.33;96721.41;5067282;28;20434;-69
2021/03/27 02:31:38;;;;;;;2.35;2.20;;;;;;;23.36;30.21;96720.09;5067515;28;20056;-68
2021/03/27 02:34:16;;;;;;;2.20;2.10;;;;;;;23.37;30.25;96724.47;5051884;28;20056;-68
2021/03/27 02:37:19;;;;;;;2.17;2.08;;;;;;;23.38;30.14;96737.81;5081367;28;20051;-68
2021/03/27 02:39:53;;;;;;;2.45;2.35;;;;;;;23.39;30.36;96747.66;5074515;28;20068;-68
2021/03/27 02:42:45;;;;;;;2.60;2.40;;;;;;;23.38;30.29;96740.56;5085538;28;20056;-69
2021/03/27 02:45:17;;;;;;;2.20;2.10;;;;;;;23.39;30.22;96749.59;5087191;28;20048;-68
2021/03/27 02:47:44;;;;;;;2.40;2.30;;;;;;;23.37;30.24;96749.88;5070287;28;20162;-69
2021/03/27 02:50:33;;;;;;;2.30;2.20;;;;;;;23.38;30.30;96751.50;5088397;28;20058;-69
2021/03/27 02:53:11;;;;;;;2.08;1.98;;;;;;;23.38;30.17;96756.97;5089030;28;20142;-69
2021/03/27 02:56:00;;;;;;;1.95;1.85;;;;;;;23.38;30.29;96761.63;5107763;28;20062;-68
2021/03/27 02:58:30;;;;;;;2.50;2.30;;;;;;;23.37;30.15;96769.00;5105653;28;20047;-69
2021/03/27 03:01:07;;;;;;;1.83;1.73;;;;;;;23.37;30.40;96765.47;5089395;28;20047;-69
2021/03/27 03:03:50;;;;;;;2.22;2.13;;;;;;;23.36;30.32;96766.56;5106296;28;20546;-68
2021/03/27 03:06:34;;;;;;;2.25;2.05;;;;;;;23.38;30.22;96770.63;5106822;28;20460;-68
2021/03/27 03:09:11;;;;;;;2.17;2.07;;;;;;;23.35;30.21;96776.69;5106357;28;20055;-68
2021/03/27 03:11:59;;;;;;;1.90;1.80;;;;;;;23.36;30.22;96782.97;5105136;28;20289;-67
2021/03/27 03:14:35;;;;;;;2.38;2.28;;;;;;;23.35;30.15;96789.56;5107177;28;20040;-68
2021/03/27 03:17:31;;;;;;;2.17;2.08;;;;;;;23.34;30.16;96791.47;5106184;28;20048;-67
2021/03/27 03:20:21;;;;;;;1.90;1.80;;;;;;;23.37;30.08;96798.28;5106957;28;20159;-64
2021/03/27 03:23:05;;;;;;;2.00;1.90;;;;;;;23.36;30.12;96797.44;5105776;28;20429;-67
2021/03/27 03:25:32;;;;;;;2.28;2.10;;;;;;;23.35;30.11;96803.22;5105870;28;20445;-66
2021/03/27 03:28:20;;;;;;;2.20;2.05;;;;;;;23.34;30.06;96827.00;5088903;28;20059;-68
2021/03/27 03:31:22;;;;;;;2.60;2.40;;;;;;;23.39;29.92;96864.41;5105661;28;20060;-65
2021/03/27 03:34:07;;;;;;;2.08;1.98;;;;;;;23.40;29.97;96866.81;5092207;28;20067;-66
2021/03/27 03:36:38;;;;;;;2.00;1.90;;;;;;;23.40;29.81;96880.50;5106431;28;20047;-60
2021/03/27 03:39:10;;;;;;;1.80;1.70;;;;;;;23.39;29.55;96880.81;5106466;28;20058;-66
2021/03/27 03:41:43;;;;;;;1.90;1.80;;;;;;;23.39;29.60;96884.34;5105868;28;20060;-63
2021/03/27 03:44:23;;;;;;;2.15;2.05;;;;;;;23.37;29.52;96897.50;5105055;28;20043;-65
2021/03/27 03:47:06;;;;;;;2.97;2.60;;;;;;;23.36;29.53;96903.25;5104939;28;20055;-65
2021/03/27 03:49:58;;;;;;;5.20;3.50;;;;;;;23.38;29.32;96901.03;5088799;28;20532;-66
2021/03/27 03:52:24;;;;;;;8.15;3.80;;;;;;;23.35;29.28;96909.81;5104885;28;20134;-65
2021/03/27 03:55:02;;;;;;;8.23;3.92;;;;;;;23.33;29.39;96914.75;5102302;28;20150;-65
2021/03/27 03:57:30;;;;;;;9.77;4.38;;;;;;;23.31;29.47;96928.72;5106415;28;20050;-66
2021/03/27 04:00:02;;;;;;;8.75;4.60;;;;;;;23.33;29.27;96931.97;5106283;28;20081;-60
2021/03/27 04:02:36;;;;;;;8.05;4.35;;;;;;;23.31;29.32;96933.38;5105217;28;20051;-62
2021/03/27 04:05:13;;;;;;;9.30;5.03;;;;;;;23.29;29.39;96946.50;5106699;28;20038;-63
2021/03/27 04:07:44;;;;;;;8.80;4.40;;;;;;;23.27;29.32;96949.53;5087494;28;20058;-66
2021/03/27 04:10:21;;;;;;;12.35;5.00;;;;;;;23.30;29.29;96953.59;5087518;28;20066;-65
2021/03/27 04:12:55;;;;;;;10.48;5.07;;;;;;;23.25;29.25;96963.47;5080051;28;20059;-63
2021/03/27 04:15:34;;;;;;;9.85;4.60;;;;;;;23.26;29.19;96965.13;5065480;28;20572;-68
2021/03/27 04:18:35;;;;;;;8.25;4.30;;;;;;;23.27;29.18;96965.94;5048526;28;20434;-64
2021/03/27 04:21:32;;;;;;;10.15;4.60;;;;;;;23.24;29.22;96970.06;5065398;28;20052;-66
2021/03/27 04:24:18;;;;;;;9.02;4.85;;;;;;;23.26;29.13;96986.19;5043649;28;20044;-61
2021/03/27 04:26:53;;;;;;;8.63;4.65;;;;;;;23.22;29.25;96985.91;5065289;28;20083;-60
2021/03/27 04:29:40;;;;;;;6.93;3.83;;;;;;;23.22;29.14;96985.13;5066004;28;20090;-63
2021/03/27 04:32:48;;;;;;;10.15;5.28;;;;;;;23.20;29.18;96993.59;5048494;28;20181;-61
2021/03/27 04:35:42;;;;;;;9.07;4.72;;;;;;;23.20;29.35;96990.06;4952630;28;20046;-63
2021/03/27 04:38:19;;;;;;;8.20;4.72;;;;;;;23.22;29.20;96993.31;4952285;28;20046;-60
2021/03/27 04:41:08;;;;;;;7.35;4.28;;;;;;;23.18;29.25;96994.97;5024233;28;20046;-69
2021/03/27 04:43:45;;;;;;;6.18;4.50;;;;;;;23.17;28.98;97001.53;5033257;28;20963;-59
2021/03/27 04:46:19;;;;;;;8.63;4.30;;;;;;;23.17;29.22;96999.63;5049157;28;20079;-59
2021/03/27 04:48:54;;;;;;;6.45;4.10;;;;;;;23.18;28.99;97000.44;5065110;28;20051;-62
2021/03/27 04:51:20;;;;;;;7.40;4.15;;;;;;;23.16;29.06;97002.66;5047712;28;20055;-62
2021/03/27 04:54:07;;;;;;;7.78;4.13;;;;;;;23.16;29.05;97008.13;5083342;28;20073;-69
2021/03/27 04:56:37;;;;;;;6.00;3.63;;;;;;;23.13;29.04;97011.41;5106158;28;20089;-68
2021/03/27 04:59:11;;;;;;;6.95;3.90;;;;;;;23.12;29.02;97017.97;5104615;28;20541;-67
2021/03/27 05:01:52;;;;;;;5.50;3.67;;;;;;;22.98;28.98;97004.91;5104764;28;20047;-63
2021/03/27 05:04:27;;;;;;;5.75;3.75;;;;;;;23.08;28.98;97023.19;5105051;28;20534;-68
2021/03/27 05:07:11;;;;;;;8.68;4.47;;;;;;;23.08;29.04;97028.66;5105959;28;20051;-66
2021/03/27 05:09:58;;;;;;;5.05;3.42;;;;;;;23.10;28.92;97031.13;5104339;28;20120;-68
2021/03/27 05:12:49;;;;;;;7.15;3.85;;;;;;;23.08;29.01;97033.31;5105846;28;20044;-68
2021/03/27 05:15:51;;;;;;;5.15;3.47;;;;;;;23.06;28.91;97034.41;5089934;28;20051;-66
2021/03/27 05:18:42;;;;;;;4.88;3.30;;;;;;;23.06;29.07;97039.88;5083107;28;20051;-65
2021/03/27 05:21:17;;;;;;;5.07;3.58;;;;;;;23.04;28.82;97039.34;5105999;28;20044;-68
2021/03/27 05:23:52;;;;;;;4.50;3.10;;;;;;;23.01;29.06;97047.31;5109491;27;20164;-67
2021/03/27 05:26:33;;;;;;;4.72;3.45;;;;;;;23.01;29.03;97058.22;5074193;28;20060;-68
2021/03/27 05:29:12;;;;;;;5.38;3.20;;;;;;;23.01;28.78;97063.69;5092135;28;20075;-67
2021/03/27 05:31:47;;;;;;;6.03;3.25;;;;;;;23.00;29.00;97062.81;5107738;28;20051;-68
2021/03/27 05:34:18;;;;;;;;;;;;;;;23.00;28.83;97065.56;5110056;28;20052;-69
2021/03/27 05:37:06;;;;;;;3.70;2.63;;;;;;;22.99;29.09;97066.66;5110498;28;19925;-65
2021/03/27 05:39:40;;;;;;;5.35;4.00;;;;;;;22.98;28.94;97069.69;5108941;28;20059;-69
2021/03/27 05:42:31;;;;;;;3.72;2.63;;;;;;;22.97;28.88;97068.88;5108687;28;20056;-67
2021/03/27 05:45:31;;;;;;;3.60;2.70;;;;;;;22.95;28.85;97070.25;5108979;28;20051;-69
2021/03/27 05:48:18;;;;;;;5.53;3.30;;;;;;;22.94;28.95;97077.63;5083063;28;20060;-68
2021/03/27 05:50:55;;;;;;;3.70;2.85;;;;;;;22.92;28.90;97079.81;5088605;28;20058;-69
2021/03/27 05:53:21;;;;;;;3.30;2.28;;;;;;;22.92;28.95;97093.47;5094342;28;20097;-69
2021/03/27 05:56:13;;;;;;;3.83;2.75;;;;;;;22.91;28.85;97089.13;5107606;28;20779;-69
2021/03/27 05:58:51;;;;;;;2.80;2.30;;;;;;;22.90;28.97;97101.13;5107531;28;20058;-68
2021/03/27 06:01:38;;;;;;;5.25;3.22;;;;;;;22.89;28.75;97101.44;5107287;28;20047;-68
2021/03/27 06:04:28;;;;;;;3.75;2.63;;;;;;;22.90;28.70;97100.31;5107154;28;20055;-65
2021/03/27 06:07:22;;;;;;;3.80;2.72;;;;;;;22.89;28.82;97095.97;5108100;28;20093;-67
2021/03/27 06:10:09;;;;;;;3.67;2.55;;;;;;;22.87;28.74;97096.25;5107219;28;20047;-67
2021/03/27 06:12:40;;;;;;;4.07;2.35;;;;;;;22.85;28.61;97101.16;5108040;28;20785;-69
2021/03/27 06:15:43;;;;;;;3.20;2.42;;;;;;;22.86;28.83;97103.63;5108422;27;20542;-69
2021/03/27 06:18:26;;;;;;;2.33;2.00;;;;;;;22.87;28.63;97109.91;5093790;28;20404;-65
2021/03/27 06:21:12;;;;;;;2.65;2.30;;;;;;;22.84;28.59;97115.91;5087583;28;20047;-67
2021/03/27 06:23:54;;;;;;;2.78;2.00;;;;;;;22.80;28.85;97120.31;5087102;28;20051;-65
2021/03/27 06:26:34;;;;;;;3.35;1.80;;;;;;;22.82;28.76;97123.59;5088351;28;20052;-67
2021/03/27 06:29:15;;;;;;;2.38;1.92;;;;;;;22.80;28.62;97131.25;5088137;28;20052;-66
2021/03/27 06:32:05;;;;;;;2.78;2.00;;;;;;;22.78;28.83;97134.25;5088321;28;20040;-68
2021/03/27 06:34:46;;;;;;;2.92;2.08;;;;;;;22.75;28.68;97142.19;5087531;28;20097;-66
2021/03/27 06:37:30;;;;;;;4.30;1.92;;;;;;;22.77;28.75;97146.25;5070766;28;20129;-68
2021/03/27 06:40:34;;;;;;;2.72;1.83;;;;;;;22.73;28.96;97149.84;5086403;28;20139;-65
2021/03/27 06:43:27;;;;;;;4.40;2.00;;;;;;;22.73;28.81;97144.38;5068979;28;20052;-67
2021/03/27 06:46:18;;;;;;;1.90;1.50;;;;;;;22.72;29.18;97148.22;5086413;28;20075;-67
2021/03/27 06:48:59;;;;;;;1.98;1.77;;;;;;;22.68;28.93;97145.22;5084925;28;20052;-66
2021/03/27 06:51:56;;;;;;;5.50;2.22;;;;;;;22.69;29.06;97155.03;5085635;28;20059;-68
2021/03/27 06:54:28;;;;;;;2.30;1.58;;;;;;;22.69;29.14;97154.22;5074465;28;20051;-67
2021/03/27 06:57:25;;;;;;;2.42;1.67;;;;;;;22.66;29.05;97158.34;5087043;28;20048;-69
2021/03/27 07:00:16;;;;;;;2.00;1.77;;;;;;;22.65;29.13;97164.88;5086062;28;20534;-68
2021/03/27 07:03:23;;;;;;;3.30;1.90;;;;;;;22.52;29.28;97158.09;5088137;28;20089;-68
2021/03/27 07:05:58;;;;;;;2.03;1.50;;;;;;;22.61;29.11;97182.91;5059241;28;20412;-68
2021/03/27 07:08:30;;;;;;;2.65;1.40;;;;;;;22.61;29.15;97171.97;5105747;28;20051;-66
2021/03/27 07:11:34;;;;;;;2.30;1.40;;;;;;;22.59;29.17;97174.16;5084765;28;20055;-69
2021/03/27 07:14:25;;;;;;;1.80;1.60;;;;;;;22.59;29.17;97174.16;5047278;28;20044;-68
2021/03/27 07:17:18;;;;;;;1.73;1.20;;;;;;;22.59;29.16;97172.28;5087258;28;20044;-68
2021/03/27 07:19:59;;;;;;;2.97;1.42;;;;;;;22.58;29.22;97178.00;5087260;28;20055;-69
2021/03/27 07:22:28;;;;;;;1.80;1.42;;;;;;;22.56;29.16;97180.19;5086028;28;20047;-67
2021/03/27 07:25:17;;;;;;;1.63;1.20;;;;;;;22.55;28.91;97179.41;5087059;28;20087;-59
2021/03/27 07:28:21;;;;;;;2.35;1.30;;;;;;;22.53;28.82;97181.59;5086173;28;20052;-61
2021/03/27 07:31:05;;;;;;;2.28;1.40;;;;;;;22.50;28.92;97190.31;5084666;28;20418;-66
2021/03/27 07:34:09;;;;;;;1.83;1.27;;;;;;;22.51;28.97;97194.69;5086352;28;20105;-68
2021/03/27 07:36:54;;;;;;;2.08;1.10;;;;;;;22.49;29.09;97188.69;5075185;28;20044;-68
2021/03/27 07:39:36;;;;;;;3.53;1.38;;;;;;;22.46;29.14;97187.34;5086474;28;20051;-69
2021/03/27 07:42:53;;;;;;;1.63;1.00;;;;;;;22.46;28.96;97198.25;5085399;28;20059;-65
2021/03/27 07:45:24;;;;;;;4.93;1.38;;;;;;;22.44;29.02;97194.97;5052073;28;20048;-60
2021/03/27 07:48:21;;;;;;;2.78;1.20;;;;;;;22.45;28.96;97204.78;5086312;28;20054;-60
2021/03/27 07:50:57;;;;;;;4.53;1.40;;;;;;;22.48;29.24;97208.88;5086741;28;20515;-62
2021/03/27 07:53:25;;;;;;;3.67;1.20;;;;;;;22.44;29.22;97207.78;5091086;28;20046;-67
2021/03/27 07:56:25;;;;;;;8.88;1.40;;;;;;;22.44;29.11;97207.78;5089782;28;20082;-72
2021/03/27 07:59:15;;;;;;;5.85;1.27;;;;;;;22.48;28.82;97210.78;5068083;28;20762;-71
2021/03/27 08:02:19;;;;;;;5.28;1.60;;;;;;;22.45;28.79;97209.44;5085424;28;20517;-60
2021/03/27 08:05:14;;;;;;;4.07;1.35;;;;;;;22.46;28.62;97219.25;5071759;28;20146;-61
2021/03/27 08:08:11;;;;;;;3.28;1.48;;;;;;;22.45;28.23;97218.44;5054466;28;20186;-63
2021/03/27 08:10:57;;;;;;;5.80;1.70;;;;;;;22.43;28.36;97217.09;5078148;28;20161;-59
2021/03/27 08:13:26;;;;;;;4.55;0.98;;;;;;;22.41;28.30;97222.00;5085164;28;20050;-59
2021/03/27 08:15:55;;;;;;;6.47;1.60;;;;;;;22.42;28.39;97226.34;5085969;28;20051;-61
2021/03/27 08:18:51;;;;;;;5.40;1.23;;;;;;;22.37;28.36;97231.84;5085402;28;20059;-62
2021/03/27 08:21:42;;;;;;;5.07;1.20;;;;;;;22.36;28.39;97232.91;5047751;28;20056;-62
2021/03/27 08:24:17;;;;;;;4.18;1.20;;;;;;;22.39;28.24;97235.09;5036696;28;20061;-58
2021/03/27 08:27:13;;;;;;;1.67;1.00;;;;;;;22.35;28.36;97236.75;5066178;28;20056;-69
2021/03/27 08:29:44;;;;;;;3.45;1.10;;;;;;;22.34;28.43;97244.13;5064158;28;20052;-67
2021/03/27 08:32:37;;;;;;;3.40;0.85;;;;;;;22.32;28.48;97248.19;5066187;28;20490;-63
2021/03/27 08:35:24;;;;;;;4.50;1.30;;;;;;;22.34;28.43;97251.47;5063440;28;20064;-69
2021/03/27 08:37:58;;;;;;;2.30;1.00;;;;;;;22.30;28.72;97247.69;5063695;28;20596;-66
2021/03/27 08:40:33;;;;;;;3.97;1.20;;;;;;;22.21;28.75;97245.47;5069606;28;20050;-63
2021/03/27 08:43:17;;;;;;;3.53;1.60;;;;;;;22.15;29.33;97249.28;5083784;28;20718;-71
2021/03/27 08:46:01;;;;;;;6.63;1.58;;;;;;;22.11;29.40;97250.06;5086597;28;20044;-70
2021/03/27 08:48:51;;;;;;;3.55;1.48;;;;;;;22.07;29.53;97247.09;5082991;28;20056;-68
2021/03/27 08:51:18;;;;;;;20.83;14.82;;;;;;;22.08;29.72;97264.28;5065545;28;20415;-69
2021/03/27 08:54:48;;;;;;;23.63;18.77;;;;;;;22.06;29.57;97267.28;5079055;28;20101;-65
2021/03/27 08:57:42;;;;;;;30.95;26.63;;;;;;;22.01;29.49;97261.81;4978723;28;20058;-63
2021/03/27 09:00:31;;;;;;;50.13;42.97;;;;;;;21.98;29.66;97267.81;4987140;28;20084;-67
2021/03/27 09:03:18;;;;;;;59.95;52.13;;;;;;;21.97;29.69;97274.38;5075248;28;20074;-64
2021/03/27 09:06:18;;;;;;;57.88;51.53;;;;;;;21.95;29.56;97277.34;5086521;28;20058;-69
2021/03/27 09:08:45;;;;;;;68.25;60.40;;;;;;;21.93;29.82;97278.72;5070011;28;20509;-70
2021/03/27 09:11:43;;;;;;;83.82;74.80;;;;;;;21.94;29.70;97272.16;5086526;28;20489;-62
2021/03/27 09:14:14;;;;;;;96.50;86.43;;;;;;;21.93;29.56;97271.34;5044091;28;20044;-65
2021/03/27 09:17:08;;;;;;;113.93;101.63;;;;;;;21.92;29.54;97271.63;5089098;28;20144;-66
2021/03/27 09:20:20;;;;;;;123.82;110.60;;;;;;;21.94;29.82;97278.47;5088219;28;20051;-63
2021/03/27 09:22:55;;;;;;;132.00;117.85;;;;;;;21.92;29.67;97277.06;5006121;28;20100;-68
2021/03/27 09:25:31;;;;;;;131.13;116.88;;;;;;;21.90;29.66;97280.09;5064416;28;20056;-63
2021/03/27 09:28:23;;;;;;;118.82;105.93;;;;;;;21.92;29.74;97277.06;5050907;28;20520;-63
2021/03/27 09:31:14;;;;;;;121.43;108.25;;;;;;;21.88;29.84;97285.00;5068701;28;20052;-64
2021/03/27 09:34:05;;;;;;;126.93;113.07;;;;;;;21.86;30.06;97281.72;5067086;28;20079;-62
2021/03/27 09:36:59;;;;;;;138.55;119.03;;;;;;;21.83;30.05;97282.25;5067511;28;20052;-66
2021/03/27 09:39:28;;;;;;;142.15;124.72;;;;;;;21.80;29.91;97286.34;5069193;28;20052;-65
2021/03/27 09:42:15;;;;;;;167.30;142.32;;;;;;;21.80;30.03;97282.81;5067124;28;20551;-69
2021/03/27 09:44:49;;;;;;;198.90;170.20;;;;;;;21.77;30.03;97283.31;5072069;28;20060;-66
2021/03/27 09:47:22;;;;;;;227.70;202.55;;;;;;;21.77;30.32;97286.88;5089506;28;20483;-69
2021/03/27 09:49:58;;;;;;;259.83;226.68;;;;;;;21.85;30.63;97294.50;5086550;28;20055;-65
2021/03/27 09:53:04;;;;;;;254.63;217.00;;;;;;;21.86;30.71;97288.00;5084545;28;20052;-61
2021/03/27 09:55:48;;;;;;;222.77;184.38;;;;;;;21.83;30.34;97284.97;5043577;28;20106;-61
2021/03/27 09:58:20;;;;;;;199.55;164.65;;;;;;;21.78;30.25;97295.88;5088218;28;20063;-64
2021/03/27 10:00:50;;;;;;;182.60;145.27;;;;;;;21.74;29.81;97287.41;5088112;28;20392;-67
2021/03/27 10:03:36;;;;;;;160.02;126.32;;;;;;;21.70;29.72;97289.03;5088036;28;20051;-70
2021/03/27 10:06:39;;;;;;;144.00;117.53;;;;;;;21.70;28.87;97288.22;5084120;28;20059;-62
2021/03/27 10:09:35;;;;;;;119.15;95.15;;;;;;;21.64;28.51;97276.47;5085588;28;20060;-66
2021/03/27 10:12:05;;;;;;;115.13;89.57;;;;;;;21.61;28.64;97279.75;5084715;28;20056;-65
2021/03/27 10:14:38;;;;;;;107.10;87.13;;;;;;;21.55;28.60;97270.72;5069664;28;20059;-67
2021/03/27 10:17:18;;;;;;;93.57;74.13;;;;;;;21.60;28.15;97278.09;5068711;28;20060;-61
2021/03/27 10:19:46;;;;;;;81.20;66.22;;;;;;;21.55;28.20;97283.56;5086687;28;20056;-65
2021/03/27 10:22:41;;;;;;;76.35;61.92;;;;;;;21.58;27.98;97283.00;5074543;28;20132;-61
2021/03/27 10:25:09;;;;;;;69.93;55.42;;;;;;;21.56;27.89;97277.81;5085649;28;20148;-62
2021/03/27 10:27:40;;;;;;;65.75;51.28;;;;;;;21.55;27.94;97280.81;5070151;28;20044;-61
2021/03/27 10:30:31;;;;;;;59.67;49.60;;;;;;;21.55;27.80;97278.91;5088061;28;20702;-61
2021/03/27 10:33:43;;;;;;;60.92;48.30;;;;;;;21.53;28.05;97278.38;5054972;28;20060;-60
2021/03/27 10:36:16;;;;;;;58.20;47.80;;;;;;;21.54;27.78;97279.16;5023773;28;20052;-60
2021/03/27 10:38:45;;;;;;;56.15;45.03;;;;;;;21.53;27.97;97285.72;5087060;28;20127;-60
2021/03/27 10:41:24;;;;;;;55.50;43.60;;;;;;;21.50;28.04;97286.25;5087045;28;20051;-60
2021/03/27 10:44:00;;;;;;;51.25;39.25;;;;;;;21.49;28.35;97282.72;5086660;28;20083;-60
2021/03/27 10:46:44;;;;;;;49.85;39.97;;;;;;;21.48;28.25;97275.63;5069587;28;20101;-60
2021/03/27 10:49:28;;;;;;;52.78;41.70;;;;;;;21.48;28.18;97281.09;5086438;28;20148;-60
2021/03/27 10:52:07;;;;;;;54.88;45.35;;;;;;;21.48;28.46;97275.63;5087675;28;20082;-61
2021/03/27 10:54:54;;;;;;;46.08;38.72;;;;;;;21.43;28.66;97273.69;5102350;28;20047;-67
2021/03/27 10:57:39;;;;;;;50.25;39.78;;;;;;;21.45;28.59;97273.44;5092882;28;20054;-70
2021/03/27 11:00:22;;;;;;;45.83;36.80;;;;;;;21.44;28.62;97274.53;5087252;28;20145;-67
2021/03/27 11:03:12;;;;;;;45.05;35.70;;;;;;;21.42;28.67;97266.63;5087954;28;20044;-69
2021/03/27 11:05:58;;;;;;;43.33;34.78;;;;;;;21.41;28.57;97269.56;5086969;28;20131;-66
2021/03/27 11:08:57;;;;;;;42.00;33.97;;;;;;;21.38;28.67;97273.66;5085892;28;20055;-71
2021/03/27 11:11:47;;;;;;;40.55;35.03;;;;;;;21.38;28.62;97268.19;5086605;28;20048;-68
2021/03/27 11:14:34;;;;;;;41.35;33.78;;;;;;;21.35;28.85;97267.91;5088359;28;20062;-66
2021/03/27 11:17:20;;;;;;;40.35;34.20;;;;;;;21.36;28.52;97264.91;5087190;28;20154;-70
2021/03/27 11:20:04;;;;;;;38.15;31.60;;;;;;;21.34;28.79;97256.19;5085252;28;20089;-71
2021/03/27 11:23:07;;;;;;;39.07;31.77;;;;;;;21.34;28.69;97263.56;5086852;28;20086;-61
2021/03/27 11:25:59;;;;;;;35.40;29.75;;;;;;;21.34;28.88;97264.38;5088844;28;20282;-65
2021/03/27 11:28:30;;;;;;;35.30;29.52;;;;;;;21.33;28.96;97257.25;5085961;28;20048;-62
2021/03/27 11:30:55;;;;;;;32.22;27.75;;;;;;;21.32;28.72;97263.00;5085822;28;20044;-65
2021/03/27 11:33:29;;;;;;;32.50;27.88;;;;;;;21.30;29.15;97262.44;5085138;28;20525;-61
2021/03/27 11:36:17;;;;;;;32.22;27.15;;;;;;;21.28;28.74;97256.44;5085554;28;20056;-61
2021/03/27 11:38:46;;;;;;;32.92;26.80;;;;;;;21.26;28.95;97246.63;5086432;28;20055;-62
2021/03/27 11:41:35;;;;;;;30.15;25.33;;;;;;;21.31;28.77;97253.19;5086003;28;20066;-64
2021/03/27 11:44:21;;;;;;;31.10;25.90;;;;;;;21.28;28.81;97259.97;5085444;28;20047;-60
2021/03/27 11:46:58;;;;;;;32.80;24.90;;;;;;;21.30;29.26;97266.00;5085929;28;20062;-61
2021/03/27 11:49:47;;;;;;;27.67;23.50;;;;;;;21.27;29.11;97258.34;5086683;28;20063;-63
2021/03/27 11:52:42;;;;;;;28.40;23.20;;;;;;;21.27;29.44;97252.88;5086056;28;20047;-61
2021/03/27 11:55:28;;;;;;;28.77;24.50;;;;;;;21.26;29.18;97251.25;5057224;28;20861;-62
2021/03/27 11:58:02;;;;;;;29.55;22.92;;;;;;;21.27;29.30;97250.16;5048358;28;20048;-62
2021/03/27 12:03:46;;;;;;;26.88;20.92;;;;;;;21.24;29.24;97237.09;5066678;28;20040;-72
2021/03/27 12:06:30;;;;;;;24.52;20.45;;;;;;;21.24;29.28;97237.88;5066904;28;20520;-64
2021/03/27 12:09:09;;;;;;;25.35;19.98;;;;;;;21.23;29.28;97243.63;5065940;28;20499;-62
2021/03/27 12:11:57;;;;;;;23.48;19.33;;;;;;;21.22;29.89;97244.69;5076578;28;20444;-66
2021/03/27 12:14:45;;;;;;;25.02;19.67;;;;;;;21.18;29.50;97241.69;5045886;28;20044;-65
2021/03/27 12:17:43;;;;;;;22.95;17.63;;;;;;;21.19;29.45;97243.34;5084143;28;20154;-65
2021/03/27 12:20:20;;;;;;;20.65;17.33;;;;;;;21.18;29.34;97240.88;5086579;28;20059;-70
2021/03/27 12:23:24;;;;;;;20.17;16.45;;;;;;;21.17;29.04;97234.59;5085259;28;20052;-62
2021/03/27 12:26:10;;;;;;;18.33;15.57;;;;;;;21.20;28.60;97233.25;5081038;28;20061;-60
2021/03/27 12:28:58;;;;;;;18.30;15.60;;;;;;;21.18;28.79;97232.69;5085931;28;20059;-67
2021/03/27 12:31:52;;;;;;;19.40;16.85;;;;;;;21.18;28.88;97227.25;5079549;28;20043;-63
2021/03/27 12:34:27;;;;;;;17.30;14.55;;;;;;;21.17;29.14;97231.88;5088541;28;20048;-60
2021/03/27 12:36:59;;;;;;;;;;;;;;;21.19;29.50;97228.91;5086955;28;20093;-59
2021/03/27 12:39:54;;;;;;;16.38;13.70;;;;;;;21.22;29.29;97228.34;5098125;28;19916;-63
2021/03/27 12:42:36;;;;;;;16.98;14.13;;;;;;;21.21;29.30;97230.28;5064868;28;20044;-60